createdAt,value
2019-05-25T00:00:23.652Z,101500.48
2019-05-25T00:02:58.700Z,101503.88
2019-05-25T00:05:33.998Z,101503.81
2019-05-25T00:08:08.979Z,101502.61
2019-05-25T00:10:43.963Z,101505.87
2019-05-25T00:13:19.051Z,101506.59
2019-05-25T00:15:54.024Z,101503.66
2019-05-25T00:18:29.192Z,101511.02
2019-05-25T00:21:04.249Z,101512.24
2019-05-25T00:23:39.239Z,101514.74
2019-05-25T00:26:14.196Z,101503.34
2019-05-25T00:28:49.459Z,101506.88
2019-05-25T00:31:24.553Z,101508.06
2019-05-25T00:34:00.293Z,101513.47
2019-05-25T00:36:35.799Z,101516.28
2019-05-25T00:39:10.857Z,101515.72
2019-05-25T00:41:45.934Z,101515.24
2019-05-25T00:44:20.928Z,101516.66
2019-05-25T00:46:56.023Z,101513.23
2019-05-25T00:49:31.031Z,101519.15
2019-05-25T00:52:06.023Z,101512.16
2019-05-25T00:54:41.113Z,101514.09
2019-05-25T00:57:16.129Z,101523.45
2019-05-25T00:59:51.122Z,101525.30
2019-05-25T01:02:26.201Z,101527.98
2019-05-25T01:05:01.182Z,101526.97
2019-05-25T01:07:36.203Z,101530.62
2019-05-25T01:10:12.699Z,101533.63
2019-05-25T01:12:48.432Z,101533.57
2019-05-25T01:15:24.005Z,101526.87
2019-05-25T01:17:59.091Z,101526.80
2019-05-25T01:20:34.186Z,101535.09
2019-05-25T01:23:09.146Z,101530.38
2019-05-25T01:25:44.527Z,101523.43
2019-05-25T01:28:19.501Z,101522.41
2019-05-25T01:30:54.481Z,101512.71
2019-05-25T01:33:29.564Z,101520.14
2019-05-25T01:36:04.552Z,101524.39
2019-05-25T01:38:39.887Z,101528.37
2019-05-25T01:41:14.891Z,101526.74
2019-05-25T01:43:50.931Z,101527.84
2019-05-25T01:46:25.907Z,101530.25
2019-05-25T01:49:01.125Z,101532.23
2019-05-25T01:51:36.082Z,101535.69
2019-05-25T01:54:11.065Z,101536.89
2019-05-25T01:56:46.031Z,101533.54
2019-05-25T01:59:21.045Z,101533.68
2019-05-25T02:01:56.149Z,101535.88
2019-05-25T02:04:31.296Z,101532.76
2019-05-25T02:07:06.368Z,101528.25
2019-05-25T02:09:41.352Z,101532.69
2019-05-25T02:12:16.459Z,101538.58
2019-05-25T02:14:52.484Z,101544.63
2019-05-25T02:17:27.487Z,101543.39
2019-05-25T02:20:02.522Z,101538.76
2019-05-25T02:22:38.551Z,101544.48
2019-05-25T02:25:18.197Z,101544.08
2019-05-25T02:27:51.157Z,101541.08
2019-05-25T02:30:30.980Z,101543.53
2019-05-25T02:33:05.942Z,101542.83
2019-05-25T02:35:42.211Z,101546.26
2019-05-25T02:38:17.298Z,101549.13
2019-05-25T02:40:52.379Z,101546.96
2019-05-25T02:43:27.352Z,101543.84
2019-05-25T02:46:02.449Z,101550.50
2019-05-25T02:48:37.505Z,101549.58
2019-05-25T02:51:12.611Z,101547.19
2019-05-25T02:53:47.710Z,101550.90
2019-05-25T02:56:22.682Z,101555.10
2019-05-25T02:58:57.759Z,101558.03
2019-05-25T03:01:33.136Z,101562.06
2019-05-25T03:04:08.192Z,101562.83
2019-05-25T03:06:44.771Z,101558.75
2019-05-25T03:09:22.036Z,101559.39
2019-05-25T03:11:59.676Z,101557.14
2019-05-25T03:14:34.845Z,101554.12
2019-05-25T03:17:09.883Z,101556.29
2019-05-25T03:19:44.851Z,101558.37
2019-05-25T03:22:19.840Z,101559.48
2019-05-25T03:24:54.917Z,101560.77
2019-05-25T03:27:29.916Z,101563.31
2019-05-25T03:30:06.332Z,101566.63
2019-05-25T03:32:41.320Z,101570.60
2019-05-25T03:35:16.308Z,101569.58
2019-05-25T03:37:51.270Z,101569.11
2019-05-25T03:40:26.262Z,101569.25
2019-05-25T03:43:03.743Z,101572.39
2019-05-25T03:45:38.936Z,101572.89
2019-05-25T03:48:14.006Z,101578.50
2019-05-25T03:50:49.134Z,101583.11
2019-05-25T03:53:24.196Z,101586.44
2019-05-25T03:56:05.715Z,101581.36
2019-05-25T03:58:35.965Z,101583.30
2019-05-25T04:01:11.699Z,101591.05
2019-05-25T04:03:46.688Z,101584.30
2019-05-25T04:06:21.762Z,101583.36
2019-05-25T04:08:56.817Z,101586.84
2019-05-25T04:11:34.114Z,101587.38
2019-05-25T04:14:10.065Z,101582.78
2019-05-25T04:16:45.068Z,101583.58
2019-05-25T04:19:20.138Z,101590.42
2019-05-25T04:21:55.138Z,101590.51
2019-05-25T04:24:30.109Z,101586.77
2019-05-25T04:27:09.284Z,101591.46
2019-05-25T04:29:44.538Z,101595.73
2019-05-25T04:32:20.397Z,101597.86
2019-05-25T04:34:55.464Z,101597.34
2019-05-25T04:37:30.566Z,101601.98
2019-05-25T04:40:06.030Z,101598.66
2019-05-25T04:42:42.097Z,101604.44
2019-05-25T04:45:17.361Z,101600.38
2019-05-25T04:47:52.433Z,101603.12
2019-05-25T04:50:27.502Z,101597.58
2019-05-25T04:53:02.591Z,101599.53
2019-05-25T04:55:37.550Z,101596.61
2019-05-25T04:58:12.534Z,101597.47
2019-05-25T05:00:47.530Z,101599.72
2019-05-25T05:03:22.535Z,101598.06
2019-05-25T05:05:57.522Z,101607.81
2019-05-25T05:08:35.595Z,101609.75
2019-05-25T05:11:09.204Z,101608.34
2019-05-25T05:13:44.202Z,101612.31
2019-05-25T05:16:19.311Z,101620.36
2019-05-25T05:18:54.294Z,101613.85
2019-05-25T05:21:29.334Z,101623.69
2019-05-25T05:24:04.372Z,101621.50
2019-05-25T05:26:54.626Z,101622.31
2019-05-25T05:29:16.162Z,101625.86
2019-05-25T05:31:51.386Z,101629.73
2019-05-25T05:34:26.483Z,101627.94
2019-05-25T05:37:03.290Z,101624.92
2019-05-25T05:39:38.378Z,101625.42
2019-05-25T05:42:16.851Z,101630.86
2019-05-25T05:44:53.974Z,101631.17
2019-05-25T05:47:31.764Z,101629.89
2019-05-25T05:50:08.860Z,101629.72
2019-05-25T05:52:49.032Z,101641.05
2019-05-25T05:55:33.392Z,101631.71
2019-05-25T05:58:08.558Z,101637.61
2019-05-25T06:00:44.546Z,101631.44
2019-05-25T06:03:21.858Z,101637.57
2019-05-25T06:05:57.859Z,101637.45
2019-05-25T06:08:33.186Z,101643.99
2019-05-25T06:11:08.368Z,101639.09
2019-05-25T06:13:43.952Z,101650.27
2019-05-25T06:16:19.150Z,101648.72
2019-05-25T06:18:54.256Z,101658.11
2019-05-25T06:21:29.650Z,101653.73
2019-05-25T06:24:06.293Z,101656.69
2019-05-25T06:26:41.472Z,101654.55
2019-05-25T06:29:16.772Z,101656.67
2019-05-25T06:31:52.047Z,101659.91
2019-05-25T06:34:28.438Z,101660.03
2019-05-25T06:37:03.607Z,101660.98
2019-05-25T06:39:38.778Z,101665.97
2019-05-25T06:42:13.910Z,101658.18
2019-05-25T06:44:49.403Z,101665.42
2019-05-25T06:47:24.615Z,101666.25
2019-05-25T06:49:59.691Z,101667.63
2019-05-25T06:52:37.656Z,101671.00
2019-05-25T06:55:13.581Z,101674.36
2019-05-25T06:57:49.024Z,101672.66
2019-05-25T07:00:25.030Z,101673.81
2019-05-25T07:03:00.334Z,101672.94
2019-05-25T07:05:35.596Z,101668.46
2019-05-25T07:08:10.952Z,101669.93
2019-05-25T07:10:46.134Z,101674.08
2019-05-25T07:13:21.353Z,101676.43
2019-05-25T07:15:56.629Z,101675.48
2019-05-25T07:18:35.247Z,101675.39
2019-05-25T07:21:10.730Z,101674.64
2019-05-25T07:23:46.070Z,101678.20
2019-05-25T07:26:24.316Z,101672.82
2019-05-25T07:29:02.049Z,101678.88
2019-05-25T07:31:37.098Z,101676.84
2019-05-25T07:34:14.887Z,101673.37
2019-05-25T07:36:50.064Z,101672.70
2019-05-25T07:39:25.514Z,101671.75
2019-05-25T07:42:01.200Z,101681.03
2019-05-25T07:44:36.651Z,101682.66
2019-05-25T07:47:13.288Z,101682.48
2019-05-25T07:49:48.946Z,101685.42
2019-05-25T07:52:23.936Z,101686.89
2019-05-25T07:54:59.039Z,101692.35
2019-05-25T07:57:34.317Z,101692.12
2019-05-25T08:00:10.425Z,101694.20
2019-05-25T08:02:46.415Z,101698.11
2019-05-25T08:05:24.832Z,101699.97
2019-05-25T08:07:59.893Z,101700.09
2019-05-25T08:10:38.709Z,101697.39
2019-05-25T08:13:13.828Z,101704.00
2019-05-25T08:15:49.073Z,101712.88
2019-05-25T08:18:25.269Z,101713.53
2019-05-25T08:21:00.372Z,101709.91
2019-05-25T08:23:35.523Z,101709.16
2019-05-25T08:26:10.678Z,101711.81
2019-05-25T08:28:45.790Z,101710.55
2019-05-25T08:31:20.846Z,101720.83
2019-05-25T08:33:56.390Z,101711.84
2019-05-25T08:36:31.614Z,101711.03
2019-05-25T08:39:08.424Z,101715.01
2019-05-25T08:41:45.580Z,101712.02
2019-05-25T08:44:20.570Z,101706.22
2019-05-25T08:46:56.670Z,101709.14
2019-05-25T08:49:32.711Z,101705.45
2019-05-25T08:52:07.893Z,101704.66
2019-05-25T08:54:43.090Z,101701.84
2019-05-25T08:57:18.736Z,101700.39
2019-05-25T08:59:53.920Z,101706.94
2019-05-25T09:02:29.160Z,101701.13
2019-05-25T09:05:05.569Z,101704.30
2019-05-25T09:07:41.816Z,101695.25
2019-05-25T09:10:17.961Z,101703.91
2019-05-25T09:12:53.069Z,101705.41
2019-05-25T09:15:28.238Z,101707.94
2019-05-25T09:18:07.296Z,101708.62
2019-05-25T09:20:42.475Z,101707.00
2019-05-25T09:23:17.608Z,101718.08
2019-05-25T09:25:52.687Z,101718.27
2019-05-25T09:28:27.949Z,101737.06
2019-05-25T09:31:03.356Z,101737.69
2019-05-25T09:33:41.015Z,101742.47
2019-05-25T09:36:16.065Z,101745.66
2019-05-25T09:38:51.324Z,101739.95
2019-05-25T09:41:26.749Z,101741.21
2019-05-25T09:44:04.068Z,101736.80
2019-05-25T09:46:39.236Z,101741.31
2019-05-25T09:49:14.965Z,101737.72
2019-05-25T09:51:50.066Z,101747.94
2019-05-25T09:54:25.387Z,101740.36
2019-05-25T09:57:01.324Z,101738.81
2019-05-25T09:59:36.525Z,101746.95
2019-05-25T10:02:11.568Z,101743.02
2019-05-25T10:04:46.784Z,101740.20
2019-05-25T10:07:22.145Z,101736.59
2019-05-25T10:09:57.406Z,101729.94
2019-05-25T10:12:32.681Z,101732.16
2019-05-25T10:15:08.170Z,101732.72
2019-05-25T10:17:43.314Z,101731.06
2019-05-25T10:20:19.209Z,101732.67
2019-05-25T10:22:57.911Z,101734.33
2019-05-25T10:25:33.821Z,101732.50
2019-05-25T10:28:09.535Z,101733.30
2019-05-25T10:30:45.072Z,101719.45
2019-05-25T10:33:21.894Z,101714.52
2019-05-25T10:35:57.171Z,101719.81
2019-05-25T10:38:33.601Z,101716.66
2019-05-25T10:41:08.677Z,101721.19
2019-05-25T10:43:43.830Z,101713.98
2019-05-25T10:46:19.035Z,101715.23
2019-05-25T10:48:54.985Z,101723.47
2019-05-25T10:51:31.061Z,101723.16
2019-05-25T10:54:10.664Z,101725.55
2019-05-25T10:56:45.994Z,101728.39
2019-05-25T10:59:22.731Z,101726.00
2019-05-25T11:02:00.623Z,101721.95
2019-05-25T11:04:36.672Z,101724.96
2019-05-25T11:07:12.537Z,101727.30
2019-05-25T11:09:47.797Z,101728.69
2019-05-25T11:12:26.048Z,101723.52
2019-05-25T11:14:59.762Z,101723.07
2019-05-25T11:17:34.924Z,101723.60
2019-05-25T11:20:11.991Z,101721.20
2019-05-25T11:22:47.491Z,101719.36
2019-05-25T11:25:22.720Z,101718.30
2019-05-25T11:27:58.089Z,101715.91
2019-05-25T11:30:34.119Z,101712.72
2019-05-25T11:33:10.835Z,101715.64
2019-05-25T11:35:46.673Z,101713.53
2019-05-25T11:38:21.947Z,101714.31
2019-05-25T11:40:57.150Z,101718.30
2019-05-25T11:43:32.427Z,101711.65
2019-05-25T11:46:07.614Z,101713.23
2019-05-25T11:48:43.971Z,101702.88
2019-05-25T11:51:19.241Z,101716.67
2019-05-25T11:53:54.677Z,101723.61
2019-05-25T11:56:29.920Z,101723.33
2019-05-25T11:59:05.125Z,101717.52
2019-05-25T12:01:40.325Z,101718.30
2019-05-25T12:04:15.658Z,101711.66
2019-05-25T12:06:50.888Z,101715.59
2019-05-25T12:09:26.782Z,101712.95
2019-05-25T12:12:01.997Z,101707.85
2019-05-25T12:14:37.344Z,101710.75
2019-05-25T12:17:12.680Z,101707.20
2019-05-25T12:19:48.136Z,101708.01
2019-05-25T12:22:23.467Z,101701.47
2019-05-25T12:24:58.846Z,101699.47
2019-05-25T12:27:34.135Z,101696.62
2019-05-25T12:30:11.084Z,101699.23
2019-05-25T12:32:46.358Z,101703.70
2019-05-25T12:35:24.484Z,101703.48
2019-05-25T12:37:59.953Z,101705.20
2019-05-25T12:40:35.263Z,101709.71
2019-05-25T12:43:10.503Z,101712.07
2019-05-25T12:45:45.664Z,101709.86
2019-05-25T12:48:20.895Z,101713.91
2019-05-25T12:50:56.890Z,101714.13
2019-05-25T12:53:32.918Z,101702.09
2019-05-25T12:56:08.072Z,101699.06
2019-05-25T12:58:45.215Z,101709.27
2019-05-25T13:01:20.218Z,101707.02
2019-05-25T13:03:55.443Z,101715.89
2019-05-25T13:06:30.525Z,101718.26
2019-05-25T13:09:07.292Z,101721.77
2019-05-25T13:11:42.270Z,101715.62
2019-05-25T13:14:17.601Z,101719.08
2019-05-25T13:16:52.589Z,101727.33
2019-05-25T13:19:27.637Z,101722.02
2019-05-25T13:22:02.838Z,101729.20
2019-05-25T13:24:37.974Z,101727.83
2019-05-25T13:27:12.989Z,101730.48
2019-05-25T13:29:48.089Z,101723.06
2019-05-25T13:32:23.100Z,101723.60
2019-05-25T13:34:58.091Z,101727.52
2019-05-25T13:37:33.158Z,101734.62
2019-05-25T13:40:09.800Z,101726.16
2019-05-25T13:42:44.893Z,101726.38
2019-05-25T13:45:20.054Z,101725.42
2019-05-25T13:47:55.155Z,101720.95
2019-05-25T13:50:30.240Z,101717.78
2019-05-25T13:53:06.011Z,101716.92
2019-05-25T13:55:42.150Z,101711.44
2019-05-25T13:58:17.164Z,101715.22
2019-05-25T14:00:52.203Z,101715.78
2019-05-25T14:03:27.324Z,101709.59
2019-05-25T14:06:02.405Z,101720.52
2019-05-25T14:08:37.703Z,101724.59
2019-05-25T14:11:12.778Z,101719.08
2019-05-25T14:13:47.889Z,101720.08
2019-05-25T14:16:22.868Z,101733.67
2019-05-25T14:18:57.846Z,101722.80
2019-05-25T14:21:33.069Z,101724.13
2019-05-25T14:24:08.075Z,101725.72
2019-05-25T14:26:43.207Z,101728.11
2019-05-25T14:29:18.955Z,101729.25
2019-05-25T14:31:54.240Z,101725.40
2019-05-25T14:34:29.269Z,101733.98
2019-05-25T14:37:04.503Z,101715.84
2019-05-25T14:39:39.507Z,101726.05
2019-05-25T14:42:14.518Z,101727.45
2019-05-25T14:44:49.631Z,101725.92
2019-05-25T14:47:24.606Z,101724.58
2019-05-25T14:49:59.953Z,101723.33
2019-05-25T14:52:35.056Z,101710.51
2019-05-25T14:55:10.576Z,101715.14
2019-05-25T14:57:45.597Z,101706.52
2019-05-25T15:00:21.457Z,101706.27
2019-05-25T15:02:56.553Z,101707.12
2019-05-25T15:05:31.979Z,101696.86
2019-05-25T15:08:07.228Z,101696.31
2019-05-25T15:10:42.311Z,101705.88
2019-05-25T15:13:17.478Z,101692.64
2019-05-25T15:15:53.010Z,101694.63
2019-05-25T15:18:29.108Z,101684.50
2019-05-25T15:21:05.183Z,101686.81
2019-05-25T15:23:41.555Z,101684.33
2019-05-25T15:26:17.602Z,101677.20
2019-05-25T15:28:53.100Z,101668.88
2019-05-25T15:31:28.358Z,101673.14
2019-05-25T15:34:03.601Z,101682.09
2019-05-25T15:36:38.752Z,101679.66
2019-05-25T15:39:14.085Z,101683.88
2019-05-25T15:41:52.399Z,101678.61
2019-05-25T15:44:27.475Z,101682.22
2019-05-25T15:47:04.957Z,101687.73
2019-05-25T15:49:39.600Z,101687.88
2019-05-25T15:52:14.948Z,101689.59
2019-05-25T15:54:50.289Z,101693.09
2019-05-25T15:57:26.027Z,101681.56
2019-05-25T16:00:01.226Z,101687.19
2019-05-25T16:02:37.554Z,101688.50
2019-05-25T16:05:13.607Z,101690.13
2019-05-25T16:07:54.192Z,101687.98
2019-05-25T16:10:29.728Z,101687.67
2019-05-25T16:13:05.244Z,101678.20
2019-05-25T16:15:41.266Z,101681.09
2019-05-25T16:18:17.211Z,101677.40
2019-05-25T16:20:52.540Z,101674.42
2019-05-25T16:23:27.598Z,101679.77
2019-05-25T16:26:02.854Z,101672.61
2019-05-25T16:28:38.028Z,101676.35
2019-05-25T16:31:15.526Z,101673.66
2019-05-25T16:33:51.410Z,101677.88
2019-05-25T16:36:26.710Z,101669.16
2019-05-25T16:39:01.995Z,101665.70
2019-05-25T16:41:38.448Z,101663.84
2019-05-25T16:44:13.827Z,101667.28
2019-05-25T16:46:48.902Z,101669.95
2019-05-25T16:49:24.570Z,101669.41
2019-05-25T16:51:59.702Z,101666.99
2019-05-25T16:54:34.694Z,101671.39
2019-05-25T16:57:10.084Z,101668.96
2019-05-25T16:59:45.063Z,101675.41
2019-05-25T17:02:20.171Z,101677.13
2019-05-25T17:04:55.136Z,101678.95
2019-05-25T17:07:30.241Z,101678.42
2019-05-25T17:10:07.382Z,101679.68
2019-05-25T17:12:42.470Z,101682.57
2019-05-25T17:15:17.733Z,101678.36
2019-05-25T17:17:54.348Z,101670.19
2019-05-25T17:20:29.733Z,101671.50
2019-05-25T17:23:04.832Z,101667.29
2019-05-25T17:25:39.821Z,101665.48
2019-05-25T17:28:15.892Z,101667.31
2019-05-25T17:30:50.855Z,101668.91
2019-05-25T17:33:26.490Z,101672.60
2019-05-25T17:36:01.462Z,101664.59
2019-05-25T17:38:37.110Z,101673.53
2019-05-25T17:41:12.089Z,101669.84
2019-05-25T17:43:48.212Z,101660.66
2019-05-25T17:46:23.313Z,101662.24
2019-05-25T17:48:58.314Z,101659.30
2019-05-25T17:51:33.423Z,101664.36
2019-05-25T17:54:08.421Z,101665.42
2019-05-25T17:56:43.402Z,101674.98
2019-05-25T17:59:18.531Z,101668.65
2019-05-25T18:01:53.542Z,101663.55
2019-05-25T18:04:28.525Z,101661.69
2019-05-25T18:07:05.306Z,101660.66
2019-05-25T18:09:40.447Z,101669.17
2019-05-25T18:12:15.471Z,101674.98
2019-05-25T18:14:51.743Z,101675.28
2019-05-25T18:17:28.155Z,101671.02
2019-05-25T18:20:04.049Z,101672.11
2019-05-25T18:22:39.100Z,101669.71
2019-05-25T18:25:14.271Z,101669.41
2019-05-25T18:27:49.403Z,101678.91
2019-05-25T18:30:25.104Z,101679.33
2019-05-25T18:33:00.127Z,101678.69
2019-05-25T18:35:35.456Z,101674.15
2019-05-25T18:38:10.527Z,101678.54
2019-05-25T18:40:45.541Z,101683.02
2019-05-25T18:43:20.658Z,101685.09
2019-05-25T18:45:55.888Z,101680.75
2019-05-25T18:48:36.062Z,101683.44
2019-05-25T18:51:11.248Z,101682.66
2019-05-25T18:53:47.013Z,101679.84
2019-05-25T18:56:22.053Z,101675.29
2019-05-25T18:58:57.162Z,101673.38
2019-05-25T19:01:32.161Z,101677.61
2019-05-25T19:04:08.044Z,101676.94
2019-05-25T19:06:43.058Z,101667.15
2019-05-25T19:09:18.106Z,101672.92
2019-05-25T19:11:53.193Z,101674.48
2019-05-25T19:14:28.212Z,101679.25
2019-05-25T19:17:03.290Z,101686.83
2019-05-25T19:19:39.238Z,101691.22
2019-05-25T19:22:14.238Z,101695.13
2019-05-25T19:24:49.267Z,101694.00
2019-05-25T19:27:24.219Z,101695.68
2019-05-25T19:29:59.325Z,101696.25
2019-05-25T19:32:34.453Z,101697.11
2019-05-25T19:35:09.881Z,101701.91
2019-05-25T19:37:44.909Z,101699.43
2019-05-25T19:40:20.540Z,101704.16
2019-05-25T19:42:57.373Z,101705.44
2019-05-25T19:45:33.010Z,101708.77
2019-05-25T19:48:08.930Z,101705.20
2019-05-25T19:50:43.980Z,101709.86
2019-05-25T19:53:18.982Z,101709.45
2019-05-25T19:55:54.106Z,101701.52
2019-05-25T19:58:29.226Z,101702.55
2019-05-25T20:01:04.359Z,101699.50
2019-05-25T20:03:40.090Z,101694.87
2019-05-25T20:06:15.229Z,101701.71
2019-05-25T20:08:50.224Z,101704.48
2019-05-25T20:11:25.232Z,101703.87
2019-05-25T20:14:00.295Z,101697.08
2019-05-25T20:16:35.313Z,101698.84
2019-05-25T20:19:10.358Z,101695.55
2019-05-25T20:21:45.375Z,101699.19
2019-05-25T20:24:20.335Z,101696.67
2019-05-25T20:42:45.087Z,101697.42
2019-05-25T20:45:21.847Z,101698.25
2019-05-25T20:47:57.086Z,101693.67
2019-05-25T20:50:32.286Z,101696.17
2019-05-25T20:53:07.350Z,101693.66
2019-05-25T20:55:43.219Z,101696.94
2019-05-25T20:58:18.341Z,101696.90
2019-05-25T21:00:53.384Z,101693.28
2019-05-25T21:03:29.097Z,101696.48
2019-05-25T21:06:06.301Z,101693.98
2019-05-25T21:08:41.847Z,101692.81
2019-05-25T21:11:17.432Z,101695.18
2019-05-25T21:13:57.623Z,101694.39
2019-05-25T21:16:32.721Z,101691.76
2019-05-25T21:19:07.685Z,101695.81
2019-05-25T21:21:42.751Z,101691.64
2019-05-25T21:24:18.133Z,101691.69
2019-05-25T21:26:53.151Z,101687.63
2019-05-25T21:29:28.691Z,101685.89
2019-05-25T21:32:04.157Z,101685.40
2019-05-25T21:34:39.157Z,101681.80
2019-05-25T21:37:14.971Z,101681.86
2019-05-25T21:39:50.046Z,101675.73
2019-05-25T21:42:25.038Z,101683.28
2019-05-25T21:45:00.010Z,101684.84
2019-05-25T21:47:35.097Z,101685.69
2019-05-25T21:50:10.867Z,101680.49
2019-05-25T21:52:46.086Z,101679.75
2019-05-25T21:55:24.590Z,101673.58
2019-05-25T21:57:59.602Z,101668.77
2019-05-25T22:00:37.765Z,101662.97
2019-05-25T22:03:12.835Z,101665.47
2019-05-25T22:05:47.839Z,101659.59
2019-05-25T22:08:22.841Z,101654.48
2019-05-25T22:10:57.873Z,101644.50
2019-05-25T22:13:33.007Z,101637.48
2019-05-25T22:16:09.321Z,101633.98
2019-05-25T22:18:44.814Z,101622.83
2019-05-25T22:21:19.817Z,101621.46
2019-05-25T22:23:54.803Z,101618.48
2019-05-25T22:26:30.058Z,101625.97
2019-05-25T22:29:05.063Z,101622.41
2019-05-25T22:31:40.063Z,101614.34
2019-05-25T22:34:15.043Z,101614.05
2019-05-25T22:36:50.203Z,101610.33
2019-05-25T22:39:25.225Z,101613.48
2019-05-25T22:42:00.316Z,101613.16
2019-05-25T22:44:35.259Z,101605.28
2019-05-25T22:47:10.547Z,101603.04
2019-05-25T22:49:45.516Z,101597.67
2019-05-25T22:52:20.563Z,101595.95
2019-05-25T22:54:55.522Z,101586.52
2019-05-25T22:57:30.880Z,101588.77
2019-05-25T23:00:07.828Z,101586.94
2019-05-25T23:02:44.023Z,101580.94
2019-05-25T23:05:18.970Z,101578.16
2019-05-25T23:07:53.975Z,101567.08
2019-05-25T23:10:29.054Z,101567.85
2019-05-25T23:13:04.074Z,101571.19
2019-05-25T23:15:39.068Z,101572.08
2019-05-25T23:18:14.191Z,101571.80
2019-05-25T23:20:49.289Z,101575.53
2019-05-25T23:23:24.294Z,101575.11
2019-05-25T23:25:59.260Z,101572.98
2019-05-25T23:28:35.027Z,101572.23
2019-05-25T23:31:11.254Z,101569.72
2019-05-25T23:33:46.209Z,101563.27
2019-05-25T23:36:21.191Z,101568.98
2019-05-25T23:38:56.377Z,101567.16
2019-05-25T23:41:31.491Z,101567.23
2019-05-25T23:44:06.532Z,101555.95
2019-05-25T23:46:42.408Z,101564.70
2019-05-25T23:49:17.531Z,101553.79
2019-05-25T23:51:52.615Z,101546.59
2019-05-25T23:54:27.852Z,101542.77
2019-05-25T23:57:03.629Z,101536.77
2019-05-25T23:59:38.810Z,101544.35
